createdAt,value
2019-02-20T00:00:10.225Z,22.30
2019-02-20T00:02:43.126Z,19.70
2019-02-20T00:05:14.405Z,18.73
2019-02-20T00:07:44.374Z,22.23
2019-02-20T00:10:14.458Z,20.80
2019-02-20T00:12:47.234Z,19.53
2019-02-20T00:15:17.224Z,17.30
2019-02-20T00:17:48.844Z,20.80
2019-02-20T00:20:18.845Z,18.83
2019-02-20T00:22:50.770Z,21.90
2019-02-20T00:25:21.886Z,25.97
2019-02-20T00:27:51.926Z,30.13
2019-02-20T00:30:26.342Z,23.43
2019-02-20T00:32:56.417Z,21.20
2019-02-20T00:35:27.656Z,24.70
2019-02-20T00:37:57.737Z,24.00
2019-02-20T00:40:27.716Z,24.33
2019-02-20T00:42:58.927Z,20.63
2019-02-20T00:45:58.243Z,24.13
2019-02-20T00:48:54.885Z,21.87
2019-02-20T00:51:51.728Z,20.70
2019-02-20T00:54:23.628Z,23.60
2019-02-20T00:56:53.716Z,25.20
2019-02-20T00:59:23.843Z,22.17
2019-02-20T01:01:55.115Z,21.63
2019-02-20T01:04:25.227Z,21.07
2019-02-20T01:06:55.377Z,20.30
2019-02-20T01:09:25.454Z,24.73
2019-02-20T01:11:55.695Z,23.47
2019-02-20T01:14:28.548Z,27.00
2019-02-20T01:16:59.851Z,26.10
2019-02-20T01:19:29.855Z,21.40
2019-02-20T01:21:59.927Z,24.90
2019-02-20T01:24:29.995Z,18.83
2019-02-20T01:27:00.028Z,27.67
2019-02-20T01:29:30.245Z,24.10
2019-02-20T01:32:01.722Z,23.20
2019-02-20T01:34:31.747Z,25.40
2019-02-20T01:37:05.539Z,25.53
2019-02-20T01:39:35.533Z,27.50
2019-02-20T01:42:05.585Z,25.87
2019-02-20T01:44:37.493Z,22.03
2019-02-20T01:47:07.625Z,22.87
2019-02-20T01:49:39.720Z,29.17
2019-02-20T01:52:09.694Z,21.40
2019-02-20T01:54:39.701Z,26.80
2019-02-20T01:57:11.278Z,20.63
2019-02-20T01:59:41.325Z,24.47
2019-02-20T02:02:11.475Z,21.73
2019-02-20T02:04:42.736Z,27.83
2019-02-20T02:07:12.878Z,19.60
2019-02-20T02:09:44.731Z,22.23
2019-02-20T02:12:14.729Z,22.30
2019-02-20T02:14:48.360Z,23.97
2019-02-20T02:17:18.480Z,26.83
2019-02-20T02:19:48.478Z,26.13
2019-02-20T02:22:18.550Z,28.57
2019-02-20T02:24:48.659Z,26.10
2019-02-20T02:27:18.718Z,23.33
2019-02-20T02:29:51.854Z,22.70
2019-02-20T02:32:23.520Z,23.40
2019-02-20T02:34:53.620Z,19.93
2019-02-20T02:37:23.615Z,19.73
2019-02-20T02:39:54.896Z,22.67
2019-02-20T02:42:26.189Z,21.37
2019-02-20T02:44:56.326Z,26.20
2019-02-20T02:47:26.342Z,21.13
2019-02-20T02:49:56.424Z,19.73
2019-02-20T02:52:30.191Z,20.47
2019-02-20T02:55:02.709Z,22.13
2019-02-20T02:57:32.801Z,22.67
2019-02-20T03:00:02.888Z,20.40
2019-02-20T03:02:32.979Z,22.90
2019-02-20T03:05:04.921Z,21.03
2019-02-20T03:07:34.981Z,23.10
2019-02-20T03:10:07.893Z,26.53
2019-02-20T03:12:39.551Z,25.50
2019-02-20T03:15:12.720Z,22.37
2019-02-20T03:17:42.784Z,25.60
2019-02-20T03:20:14.099Z,23.03
2019-02-20T03:22:44.228Z,26.30
2019-02-20T03:25:15.508Z,25.23
2019-02-20T03:27:45.574Z,24.23
2019-02-20T03:30:15.624Z,23.80
2019-02-20T03:32:45.914Z,29.37
2019-02-20T03:35:16.000Z,29.33
2019-02-20T03:37:48.125Z,26.10
2019-02-20T03:40:17.848Z,28.43
2019-02-20T03:42:49.661Z,22.77
2019-02-20T03:45:19.770Z,24.57
2019-02-20T03:47:53.959Z,30.00
2019-02-20T03:50:25.160Z,31.67
2019-02-20T03:52:56.841Z,74.47
2019-02-20T03:55:26.860Z,70.80
2019-02-20T03:57:56.848Z,77.80
2019-02-20T04:00:29.925Z,35.87
2019-02-20T04:03:00.152Z,40.17
2019-02-20T04:05:30.221Z,35.67
2019-02-20T04:08:02.337Z,40.43
2019-02-20T04:10:32.345Z,37.63
2019-02-20T04:13:06.485Z,34.53
2019-02-20T04:15:38.617Z,29.93
2019-02-20T04:18:11.197Z,32.63
2019-02-20T04:20:42.587Z,27.93
2019-02-20T04:23:14.607Z,26.10
2019-02-20T04:25:44.383Z,29.53
2019-02-20T04:28:15.493Z,34.53
2019-02-20T04:30:45.633Z,27.57
2019-02-20T04:33:16.922Z,33.77
2019-02-20T04:35:47.059Z,27.90
2019-02-20T04:38:17.048Z,31.17
2019-02-20T04:40:51.260Z,28.53
2019-02-20T04:43:21.340Z,29.33
2019-02-20T04:48:15.159Z,29.03
2019-02-20T04:50:45.150Z,24.67
2019-02-20T04:53:15.320Z,27.77
2019-02-20T04:55:48.244Z,32.37
2019-02-20T04:58:21.508Z,33.30
2019-02-20T05:00:51.581Z,32.17
2019-02-20T05:03:23.247Z,32.20
2019-02-20T05:05:53.641Z,28.57
2019-02-20T05:08:24.848Z,29.10
2019-02-20T05:10:57.882Z,32.17
2019-02-20T05:13:27.973Z,33.67
2019-02-20T05:15:59.090Z,40.70
2019-02-20T05:18:29.161Z,33.20
2019-02-20T05:21:00.812Z,36.53
2019-02-20T05:23:30.878Z,32.50
2019-02-20T05:26:00.876Z,29.80
2019-02-20T05:28:34.708Z,34.00
2019-02-20T05:31:06.542Z,30.20
2019-02-20T05:33:36.834Z,39.20
2019-02-20T05:36:06.914Z,32.70
2019-02-20T05:38:37.649Z,29.37
2019-02-20T05:41:09.295Z,31.80
2019-02-20T05:43:39.404Z,37.20
2019-02-20T05:46:11.384Z,33.07
2019-02-20T05:48:42.574Z,32.00
2019-02-20T05:51:13.875Z,33.63
2019-02-20T05:53:48.086Z,35.10
2019-02-20T05:56:18.190Z,31.67
2019-02-20T05:58:48.318Z,31.63
2019-02-20T06:01:21.325Z,38.50
2019-02-20T06:03:52.625Z,37.17
2019-02-20T06:06:23.885Z,52.03
2019-02-20T06:08:54.301Z,47.63
2019-02-20T06:11:26.749Z,35.43
2019-02-20T06:13:56.394Z,34.90
2019-02-20T06:16:29.413Z,34.80
2019-02-20T06:19:04.103Z,38.07
2019-02-20T06:21:35.764Z,27.33
2019-02-20T06:24:07.468Z,37.17
2019-02-20T06:26:37.545Z,35.13
2019-02-20T06:29:10.858Z,37.80
2019-02-20T06:31:41.005Z,34.60
2019-02-20T06:34:11.155Z,35.67
2019-02-20T06:36:41.282Z,31.13
2019-02-20T06:39:15.664Z,36.30
2019-02-20T06:41:45.678Z,32.83
2019-02-20T06:44:17.319Z,32.13
2019-02-20T06:46:47.419Z,31.93
2019-02-20T06:49:17.518Z,31.97
2019-02-20T06:51:48.951Z,35.17
2019-02-20T06:54:19.058Z,40.43
2019-02-20T06:56:52.148Z,38.23
2019-02-20T06:59:24.301Z,38.67
2019-02-20T07:02:00.643Z,42.77
2019-02-20T07:04:33.377Z,45.07
2019-02-20T07:07:18.157Z,39.07
2019-02-20T07:10:32.297Z,35.67
2019-02-20T07:13:41.530Z,30.30
2019-02-20T07:16:58.866Z,29.70
2019-02-20T07:20:01.366Z,30.07
2019-02-20T07:23:25.204Z,30.67
2019-02-20T07:26:31.239Z,40.40
2019-02-20T07:29:25.125Z,32.80
2019-02-20T07:31:56.326Z,44.37
2019-02-20T07:34:26.432Z,42.50
2019-02-20T07:36:58.094Z,47.00
2019-02-20T07:39:28.104Z,44.80
2019-02-20T07:41:59.396Z,35.40
2019-02-20T07:44:32.267Z,31.00
2019-02-20T07:47:06.364Z,29.67
2019-02-20T07:49:38.205Z,30.33
2019-02-20T07:52:10.927Z,28.80
2019-02-20T07:54:44.667Z,26.97
2019-02-20T07:57:16.313Z,23.03
2019-02-20T07:59:46.326Z,26.07
2019-02-20T08:02:16.351Z,27.33
2019-02-20T08:04:46.426Z,24.53
2019-02-20T08:07:16.485Z,27.23
2019-02-20T08:09:52.163Z,25.87
2019-02-20T08:12:22.338Z,30.53
2019-02-20T08:14:53.723Z,28.30
2019-02-20T08:17:24.105Z,29.03
2019-02-20T08:19:54.179Z,26.97
2019-02-20T08:22:24.173Z,27.50
2019-02-20T08:24:55.713Z,27.13
2019-02-20T08:27:25.787Z,26.17
2019-02-20T08:29:58.318Z,27.10
2019-02-20T08:32:28.869Z,25.67
2019-02-20T08:34:58.937Z,26.97
2019-02-20T08:37:29.109Z,31.70
2019-02-20T08:40:04.921Z,23.87
2019-02-20T08:42:35.028Z,29.23
2019-02-20T08:45:08.539Z,26.00
2019-02-20T08:47:39.004Z,25.53
2019-02-20T08:50:13.989Z,25.43
2019-02-20T08:52:47.075Z,22.27
2019-02-20T08:55:31.555Z,25.10
2019-02-20T08:57:57.044Z,24.20
2019-02-20T09:00:27.165Z,28.80
2019-02-20T09:02:57.251Z,24.60
2019-02-20T09:05:27.363Z,24.47
2019-02-20T09:07:57.505Z,28.90
2019-02-20T09:10:27.615Z,26.43
2019-02-20T09:12:57.691Z,24.93
2019-02-20T09:15:27.773Z,25.00
2019-02-20T09:17:57.794Z,23.53
2019-02-20T09:20:27.867Z,23.97
2019-02-20T09:22:57.989Z,25.23
2019-02-20T09:25:28.160Z,23.27
2019-02-20T09:27:58.282Z,24.23
2019-02-20T09:30:29.871Z,23.33
2019-02-20T09:33:00.304Z,24.80
2019-02-20T09:35:30.370Z,26.87
2019-02-20T09:38:00.456Z,24.37
2019-02-20T09:40:30.554Z,25.97
2019-02-20T09:43:00.662Z,26.63
2019-02-20T09:45:30.748Z,24.20
2019-02-20T09:48:00.905Z,27.40
2019-02-20T09:50:30.932Z,24.90
2019-02-20T09:53:01.030Z,25.47
2019-02-20T09:55:31.124Z,25.63
2019-02-20T09:58:01.215Z,23.83
2019-02-20T10:00:31.300Z,26.83
2019-02-20T10:03:01.404Z,26.00
2019-02-20T10:05:31.411Z,25.83
2019-02-20T10:08:01.535Z,28.80
2019-02-20T10:10:31.698Z,25.73
2019-02-20T10:13:01.803Z,26.73
2019-02-20T10:15:31.884Z,22.70
2019-02-20T10:18:01.898Z,23.53
2019-02-20T10:20:31.980Z,29.20
2019-02-20T10:23:02.084Z,35.77
2019-02-20T10:25:32.185Z,24.07
2019-02-20T10:28:02.352Z,24.30
2019-02-20T10:30:32.448Z,27.10
2019-02-20T10:33:02.646Z,22.07
2019-02-20T10:35:32.728Z,24.43
2019-02-20T10:38:02.800Z,23.57
2019-02-20T10:40:32.918Z,25.33
2019-02-20T10:43:03.627Z,24.10
2019-02-20T10:45:33.856Z,24.40
2019-02-20T10:48:03.875Z,31.83
2019-02-20T10:50:33.959Z,23.50
2019-02-20T10:53:04.066Z,21.73
2019-02-20T10:55:34.147Z,25.90
2019-02-20T10:58:04.237Z,23.70
2019-02-20T11:00:34.524Z,24.57
2019-02-20T11:03:04.531Z,24.00
2019-02-20T11:05:34.545Z,22.53
2019-02-20T11:08:04.627Z,23.17
2019-02-20T11:10:34.632Z,20.90
2019-02-20T11:13:04.724Z,26.60
2019-02-20T11:15:34.831Z,23.87
2019-02-20T11:18:04.931Z,23.92
2019-02-20T11:20:35.021Z,25.60
2019-02-20T11:23:07.033Z,27.63
2019-02-20T11:25:37.130Z,22.10
2019-02-20T11:28:07.236Z,23.23
2019-02-20T11:30:42.761Z,22.07
2019-02-20T11:33:09.442Z,23.07
2019-02-20T11:35:39.538Z,24.70
2019-02-20T11:38:09.735Z,26.03
2019-02-20T11:40:39.721Z,27.30
2019-02-20T11:43:09.732Z,27.37
2019-02-20T11:45:41.288Z,22.70
2019-02-20T11:48:12.222Z,21.47
2019-02-20T11:50:45.569Z,22.93
2019-02-20T11:53:15.746Z,23.93
2019-02-20T11:55:45.764Z,23.07
2019-02-20T11:58:15.854Z,21.50
2019-02-20T12:00:45.942Z,23.93
2019-02-20T12:03:16.044Z,25.97
2019-02-20T12:05:46.238Z,24.60
2019-02-20T12:08:16.646Z,20.97
2019-02-20T12:10:46.876Z,20.80
2019-02-20T12:13:16.912Z,21.80
2019-02-20T12:15:47.072Z,21.90
2019-02-20T12:18:17.746Z,24.23
2019-02-20T12:20:49.076Z,22.07
2019-02-20T12:23:19.096Z,22.73
2019-02-20T12:25:49.178Z,22.87
2019-02-20T12:28:19.232Z,24.37
2019-02-20T12:30:50.398Z,26.10
2019-02-20T12:33:20.502Z,23.73
2019-02-20T12:35:50.580Z,21.73
2019-02-20T12:38:20.679Z,24.23
2019-02-20T12:40:52.344Z,23.70
2019-02-20T12:43:24.060Z,23.13
2019-02-20T12:45:55.528Z,23.47
2019-02-20T12:48:25.634Z,25.10
2019-02-20T12:50:57.583Z,24.07
2019-02-20T12:53:28.708Z,24.73
2019-02-20T12:55:58.863Z,24.27
2019-02-20T12:58:28.889Z,22.90
2019-02-20T13:01:01.431Z,23.37
2019-02-20T13:03:31.559Z,21.97
2019-02-20T13:06:04.548Z,26.03
2019-02-20T13:08:35.920Z,23.67
2019-02-20T13:11:06.019Z,25.73
2019-02-20T13:13:36.701Z,25.20
2019-02-20T13:16:09.655Z,26.60
2019-02-20T13:18:40.116Z,24.77
2019-02-20T13:21:11.103Z,25.10
2019-02-20T13:23:47.077Z,23.43
2019-02-20T13:26:16.449Z,28.23
2019-02-20T13:28:46.569Z,24.00
2019-02-20T13:31:16.733Z,29.67
2019-02-20T13:33:46.937Z,24.93
2019-02-20T13:36:18.177Z,25.17
2019-02-20T13:38:51.820Z,23.07
2019-02-20T13:41:21.979Z,38.80
2019-02-20T13:43:52.125Z,33.40
2019-02-20T13:46:25.611Z,25.23
2019-02-20T13:48:58.585Z,34.87
2019-02-20T13:51:37.436Z,27.70
2019-02-20T13:54:10.025Z,25.57
2019-02-20T13:56:43.151Z,34.13
2019-02-20T13:59:14.566Z,27.57
2019-02-20T14:01:48.812Z,34.60
2019-02-20T14:04:19.199Z,28.80
2019-02-20T14:06:49.371Z,26.73
2019-02-20T14:09:19.594Z,28.50
2019-02-20T14:11:49.761Z,27.23
2019-02-20T14:14:19.927Z,24.27
2019-02-20T14:16:51.682Z,25.90
2019-02-20T14:19:21.781Z,25.77
2019-02-20T14:21:51.972Z,26.30
2019-02-20T14:24:22.132Z,29.07
2019-02-20T14:26:55.921Z,25.13
2019-02-20T14:29:25.740Z,24.07
2019-02-20T14:31:56.235Z,26.00
2019-02-20T14:34:27.524Z,25.17
2019-02-20T14:37:02.906Z,24.80
2019-02-20T14:39:32.285Z,26.23
2019-02-20T14:42:04.338Z,27.30
2019-02-20T14:44:35.933Z,27.87
2019-02-20T14:47:06.120Z,23.80
2019-02-20T14:49:39.092Z,25.90
2019-02-20T14:52:09.256Z,25.17
2019-02-20T14:54:41.217Z,25.37
2019-02-20T14:57:19.442Z,26.70
2019-02-20T14:59:44.224Z,25.30
2019-02-20T15:02:14.467Z,28.98
2019-02-20T15:04:46.194Z,30.13
2019-02-20T15:07:16.360Z,27.13
2019-02-20T15:09:46.567Z,25.73
2019-02-20T15:12:16.927Z,27.10
2019-02-20T15:14:47.695Z,24.87
2019-02-20T15:17:17.895Z,26.67
2019-02-20T15:19:48.079Z,33.50
2019-02-20T15:22:18.343Z,24.70
2019-02-20T15:24:48.497Z,24.83
2019-02-20T15:27:19.244Z,29.63
2019-02-20T15:29:50.429Z,27.20
2019-02-20T15:32:20.528Z,28.40
2019-02-20T15:34:50.740Z,24.60
2019-02-20T15:37:22.104Z,26.13
2019-02-20T15:39:52.613Z,26.67
2019-02-20T15:42:22.827Z,23.67
2019-02-20T15:44:53.041Z,24.40
2019-02-20T15:47:23.291Z,25.60
2019-02-20T15:49:53.497Z,31.23
2019-02-20T15:52:23.663Z,35.50
2019-02-20T15:54:54.635Z,29.07
2019-02-20T15:57:24.830Z,26.10
2019-02-20T15:59:55.070Z,26.90
2019-02-20T16:02:25.264Z,29.37
2019-02-20T16:04:55.480Z,24.03
2019-02-20T16:07:25.699Z,25.83
2019-02-20T16:09:55.979Z,26.90
2019-02-20T16:12:26.245Z,28.17
2019-02-20T16:14:56.419Z,26.53
2019-02-20T16:17:26.585Z,23.63
2019-02-20T16:19:56.799Z,29.23
2019-02-20T16:22:28.505Z,30.73
2019-02-20T16:24:58.651Z,28.20
2019-02-20T16:27:28.920Z,28.57
2019-02-20T16:29:59.135Z,28.40
2019-02-20T16:32:29.351Z,27.77
2019-02-20T16:34:59.590Z,27.90
2019-02-20T16:37:30.194Z,28.83
2019-02-20T16:40:01.370Z,30.97
2019-02-20T16:42:31.562Z,28.07
2019-02-20T16:45:01.843Z,26.93
2019-02-20T16:47:32.281Z,28.40
2019-02-20T16:50:02.510Z,28.93
2019-02-20T16:52:33.130Z,27.37
2019-02-20T16:55:03.342Z,29.80
2019-02-20T16:57:33.562Z,25.90
2019-02-20T17:00:03.934Z,27.57
2019-02-20T17:02:35.155Z,25.23
2019-02-20T17:05:13.111Z,30.57
2019-02-20T17:07:39.280Z,31.00
2019-02-20T17:10:10.211Z,28.20
2019-02-20T17:12:44.026Z,32.23
2019-02-20T17:15:23.295Z,28.00
2019-02-20T17:17:54.080Z,30.20
2019-02-20T17:20:26.363Z,34.77
2019-02-20T17:22:56.793Z,30.13
2019-02-20T17:25:27.379Z,32.07
2019-02-20T17:28:05.476Z,32.90
2019-02-20T17:30:32.190Z,27.40
2019-02-20T17:33:04.472Z,29.83
2019-02-20T17:35:37.309Z,30.90
2019-02-20T17:38:07.849Z,30.90
2019-02-20T17:40:54.332Z,31.97
2019-02-20T17:43:26.436Z,46.93
2019-02-20T17:45:56.346Z,51.13
2019-02-20T17:48:28.474Z,43.97
2019-02-20T17:50:58.378Z,42.47
2019-02-20T17:53:28.918Z,39.70
2019-02-20T17:55:59.174Z,40.80
2019-02-20T17:58:29.642Z,46.07
2019-02-20T18:01:01.071Z,35.27
2019-02-20T18:03:31.296Z,44.93
2019-02-20T18:06:01.528Z,44.03
2019-02-20T18:08:31.748Z,45.07
2019-02-20T18:11:02.769Z,41.23
2019-02-20T18:13:33.003Z,47.67
2019-02-20T18:16:03.288Z,47.07
2019-02-20T18:18:33.539Z,45.73
2019-02-20T18:21:04.137Z,40.00
2019-02-20T18:23:35.876Z,37.07
2019-02-20T18:26:06.251Z,32.87
2019-02-20T18:28:36.561Z,37.87
2019-02-20T18:31:06.837Z,36.00
2019-02-20T18:33:42.904Z,45.87
2019-02-20T18:36:13.145Z,36.53
2019-02-20T18:38:45.173Z,35.50
2019-02-20T18:41:16.649Z,34.37
2019-02-20T18:43:50.732Z,34.50
2019-02-20T18:46:24.557Z,39.23
2019-02-20T18:48:54.844Z,42.53
2019-02-20T18:51:27.633Z,37.90
2019-02-20T18:53:57.363Z,36.83
2019-02-20T18:56:27.725Z,37.30
2019-02-20T18:58:58.864Z,32.40
2019-02-20T19:01:29.340Z,36.07
2019-02-20T19:04:01.192Z,39.50
2019-02-20T19:06:32.839Z,36.27
2019-02-20T19:09:26.955Z,42.43
2019-02-20T19:12:43.022Z,38.97
2019-02-20T19:16:01.890Z,45.63
2019-02-20T19:19:22.413Z,48.00
2019-02-20T19:22:43.088Z,41.00
2019-02-20T19:25:48.805Z,43.63
2019-02-20T19:28:49.022Z,52.20
2019-02-20T19:32:02.648Z,95.90
2019-02-20T19:35:07.125Z,60.50
2019-02-20T19:38:14.341Z,51.33
2019-02-20T19:41:23.325Z,45.17
2019-02-20T19:44:10.972Z,46.60
2019-02-20T19:47:19.831Z,51.83
2019-02-20T19:50:45.038Z,49.63
2019-02-20T19:53:43.818Z,45.37
2019-02-20T19:57:04.162Z,52.70
2019-02-20T19:59:52.750Z,65.23
2019-02-20T20:02:53.048Z,51.77
2019-02-20T20:06:06.242Z,57.77
2019-02-20T20:09:24.265Z,55.50
2019-02-20T20:12:41.314Z,52.73
2019-02-20T20:15:47.326Z,51.57
2019-02-20T20:19:03.812Z,79.60
2019-02-20T20:22:11.004Z,69.97
2019-02-20T20:25:25.940Z,72.43
2019-02-20T20:28:34.920Z,87.30
2019-02-20T20:31:40.493Z,73.50
2019-02-20T20:34:50.861Z,61.93
2019-02-20T20:37:56.126Z,60.23
2019-02-20T20:40:59.463Z,63.93
2019-02-20T20:44:06.588Z,61.87
2019-02-20T20:47:08.137Z,63.27
2019-02-20T20:49:59.502Z,61.50
2019-02-20T20:52:46.719Z,61.63
2019-02-20T20:55:46.824Z,56.00
2019-02-20T20:58:57.157Z,57.03
2019-02-20T21:01:59.797Z,56.90
2019-02-20T21:05:26.455Z,49.93
2019-02-20T21:08:26.327Z,57.60
2019-02-20T21:12:05.739Z,51.43
2019-02-20T21:14:55.690Z,52.57
2019-02-20T21:18:05.564Z,53.10
2019-02-20T21:20:59.612Z,58.83
2019-02-20T21:24:12.413Z,67.67
2019-02-20T21:27:06.402Z,56.20
2019-02-20T21:30:14.138Z,59.77
2019-02-20T21:33:17.680Z,54.57
2019-02-20T21:36:16.352Z,59.70
2019-02-20T21:39:28.831Z,53.63
2019-02-20T21:42:19.642Z,57.30
2019-02-20T21:45:40.648Z,68.10
2019-02-20T21:48:43.873Z,62.27
2019-02-20T21:51:52.387Z,67.37
2019-02-20T21:55:02.082Z,55.97
2019-02-20T21:58:07.658Z,54.37
2019-02-20T22:00:51.946Z,51.10
2019-02-20T22:03:56.156Z,52.77
2019-02-20T22:07:02.979Z,48.07
2019-02-20T22:10:02.045Z,53.63
2019-02-20T22:13:03.289Z,55.93
2019-02-20T22:16:00.755Z,54.13
2019-02-20T22:19:01.721Z,59.47
2019-02-20T22:22:24.963Z,54.00
2019-02-20T22:25:29.822Z,52.57
2019-02-20T22:28:40.113Z,48.73
2019-02-20T22:31:49.374Z,54.97
2019-02-20T22:34:36.861Z,56.93
2019-02-20T22:37:45.141Z,56.20
2019-02-20T22:40:41.514Z,52.53
2019-02-20T22:44:14.933Z,59.40
2019-02-20T22:47:06.795Z,56.70
2019-02-20T22:50:06.950Z,57.50
2019-02-20T22:53:00.724Z,64.60
2019-02-20T22:56:01.402Z,53.00
2019-02-20T22:59:08.453Z,57.43
2019-02-20T23:02:03.589Z,58.13
2019-02-20T23:04:59.117Z,51.30
2019-02-20T23:08:02.006Z,50.00
2019-02-20T23:11:11.411Z,51.53
2019-02-20T23:13:57.156Z,49.80
2019-02-20T23:16:31.582Z,46.43
2019-02-20T23:19:00.004Z,45.10
2019-02-20T23:21:30.032Z,49.23
2019-02-20T23:24:01.742Z,44.83
2019-02-20T23:26:31.807Z,44.20
2019-02-20T23:29:01.825Z,45.20
2019-02-20T23:31:33.478Z,46.93
2019-02-20T23:34:07.796Z,46.87
2019-02-20T23:36:38.162Z,43.83
2019-02-20T23:39:12.226Z,41.63
2019-02-20T23:41:43.924Z,46.50
2019-02-20T23:44:13.957Z,40.37
2019-02-20T23:46:44.016Z,44.67
2019-02-20T23:49:15.876Z,40.73
2019-02-20T23:51:45.950Z,43.37
2019-02-20T23:54:16.077Z,49.37
2019-02-20T23:56:46.074Z,42.73
2019-02-20T23:59:16.927Z,39.40
